Terminal Aerodrome Forecast
Issued by NWS

Current Version | Previous Version | Graphics & Text | Print | Product List | Glossary On
Versions: 1 2 3 4 5 6 7 8 9 10 11 12 13 14 15 16 17 18 19 20 21 22 23 24 25
000
FTUS41 KPBZ 222357 CCA
TAFHLG
TAF COR
KHLG 222357Z 2300/2324 05005KT P6SM OVC005
     FM230300 07005KT P6SM OVC010
     FM231100 12005KT 3SM -RA BR OVC010
     FM231500 17008KT 2SM -RA BR OVC010
     FM231800 22012KT 2SM -RA BR OVC008
     FM232200 24012KT 4SM -SHRA BR OVC010=

USA.gov is the U.S. government's official web portal to all federal, state and local government web resources and services.